sensor_id;sensor_type;location;lat;lon;timestamp;temperature;humidity
46416;DHT22;32620;51.704;7.822;2023-08-30T00:02:18;14.50;99.90
46416;DHT22;32620;51.704;7.822;2023-08-30T00:04:44;14.50;99.90
46416;DHT22;32620;51.704;7.822;2023-08-30T00:07:09;14.50;99.90
46416;DHT22;32620;51.704;7.822;2023-08-30T00:09:36;14.50;99.90
46416;DHT22;32620;51.704;7.822;2023-08-30T00:12:03;14.50;99.90
46416;DHT22;32620;51.704;7.822;2023-08-30T00:14:28;14.60;99.90
46416;DHT22;32620;51.704;7.822;2023-08-30T00:16:54;14.50;99.90
46416;DHT22;32620;51.704;7.822;2023-08-30T00:19:19;14.50;99.90
46416;DHT22;32620;51.704;7.822;2023-08-30T00:21:46;14.50;99.90
46416;DHT22;32620;51.704;7.822;2023-08-30T00:24:11;14.50;99.90
46416;DHT22;32620;51.704;7.822;2023-08-30T00:26:37;14.50;99.90
46416;DHT22;32620;51.704;7.822;2023-08-30T00:29:02;14.50;99.90
46416;DHT22;32620;51.704;7.822;2023-08-30T00:31:28;14.50;99.90
46416;DHT22;32620;51.704;7.822;2023-08-30T00:33:54;14.50;99.90
46416;DHT22;32620;51.704;7.822;2023-08-30T00:36:19;14.50;99.90
46416;DHT22;32620;51.704;7.822;2023-08-30T00:38:46;14.50;99.90
46416;DHT22;32620;51.704;7.822;2023-08-30T00:41:11;14.50;99.90
46416;DHT22;32620;51.704;7.822;2023-08-30T00:43:37;14.50;99.90
46416;DHT22;32620;51.704;7.822;2023-08-30T00:46:03;14.50;99.90
46416;DHT22;32620;51.704;7.822;2023-08-30T00:48:29;14.50;99.90
46416;DHT22;32620;51.704;7.822;2023-08-30T00:50:54;14.50;99.90
46416;DHT22;32620;51.704;7.822;2023-08-30T00:53:20;14.40;99.90
46416;DHT22;32620;51.704;7.822;2023-08-30T00:55:46;14.50;99.90
46416;DHT22;32620;51.704;7.822;2023-08-30T00:58:12;14.50;99.90
46416;DHT22;32620;51.704;7.822;2023-08-30T01:00:38;14.50;99.90
46416;DHT22;32620;51.704;7.822;2023-08-30T01:03:05;14.40;99.90
46416;DHT22;32620;51.704;7.822;2023-08-30T01:05:31;14.40;99.90
46416;DHT22;32620;51.704;7.822;2023-08-30T01:07:57;14.40;99.90
46416;DHT22;32620;51.704;7.822;2023-08-30T01:10:33;14.40;99.90
46416;DHT22;32620;51.704;7.822;2023-08-30T01:13:09;14.30;99.90
46416;DHT22;32620;51.704;7.822;2023-08-30T01:15:36;14.20;99.90
46416;DHT22;32620;51.704;7.822;2023-08-30T01:18:05;14.10;99.90
46416;DHT22;32620;51.704;7.822;2023-08-30T01:20:35;14.10;99.90
46416;DHT22;32620;51.704;7.822;2023-08-30T01:26:21;13.90;99.90
46416;DHT22;32620;51.704;7.822;2023-08-30T01:28:49;13.80;99.90
46416;DHT22;32620;51.704;7.822;2023-08-30T01:31:16;13.70;99.90
46416;DHT22;32620;51.704;7.822;2023-08-30T01:33:43;13.60;99.90
46416;DHT22;32620;51.704;7.822;2023-08-30T01:36:09;13.50;99.90
46416;DHT22;32620;51.704;7.822;2023-08-30T01:38:35;13.50;99.90
46416;DHT22;32620;51.704;7.822;2023-08-30T01:41:02;13.40;99.90
46416;DHT22;32620;51.704;7.822;2023-08-30T01:43:29;13.30;99.90
46416;DHT22;32620;51.704;7.822;2023-08-30T01:45:56;13.20;99.90
46416;DHT22;32620;51.704;7.822;2023-08-30T01:48:22;13.20;99.90
46416;DHT22;32620;51.704;7.822;2023-08-30T01:50:49;13.10;99.90
46416;DHT22;32620;51.704;7.822;2023-08-30T01:53:15;13.00;99.90
46416;DHT22;32620;51.704;7.822;2023-08-30T01:55:41;13.00;99.90
46416;DHT22;32620;51.704;7.822;2023-08-30T01:58:08;12.90;99.90
46416;DHT22;32620;51.704;7.822;2023-08-30T02:00:35;12.80;99.90
46416;DHT22;32620;51.704;7.822;2023-08-30T02:03:08;12.80;99.90
46416;DHT22;32620;51.704;7.822;2023-08-30T02:05:36;12.70;99.90
46416;DHT22;32620;51.704;7.822;2023-08-30T02:08:14;12.70;99.90
46416;DHT22;32620;51.704;7.822;2023-08-30T02:10:41;12.70;99.90
46416;DHT22;32620;51.704;7.822;2023-08-30T02:13:11;12.60;99.90
46416;DHT22;32620;51.704;7.822;2023-08-30T02:15:38;12.50;99.90
46416;DHT22;32620;51.704;7.822;2023-08-30T02:18:06;12.60;99.90
46416;DHT22;32620;51.704;7.822;2023-08-30T02:20:32;12.50;99.90
46416;DHT22;32620;51.704;7.822;2023-08-30T02:22:58;12.50;99.90
46416;DHT22;32620;51.704;7.822;2023-08-30T02:25:24;12.50;99.90
46416;DHT22;32620;51.704;7.822;2023-08-30T02:27:50;12.40;99.90
46416;DHT22;32620;51.704;7.822;2023-08-30T02:30:16;12.40;99.90
46416;DHT22;32620;51.704;7.822;2023-08-30T02:32:41;12.40;99.90
46416;DHT22;32620;51.704;7.822;2023-08-30T02:35:07;12.40;99.90
46416;DHT22;32620;51.704;7.822;2023-08-30T02:37:33;12.30;99.90
46416;DHT22;32620;51.704;7.822;2023-08-30T02:39:59;12.40;99.90
46416;DHT22;32620;51.704;7.822;2023-08-30T02:42:24;12.40;99.90
46416;DHT22;32620;51.704;7.822;2023-08-30T02:44:51;12.40;99.90
46416;DHT22;32620;51.704;7.822;2023-08-30T02:47:17;12.40;99.90
46416;DHT22;32620;51.704;7.822;2023-08-30T02:49:43;12.40;99.90
46416;DHT22;32620;51.704;7.822;2023-08-30T02:52:08;12.40;99.90
46416;DHT22;32620;51.704;7.822;2023-08-30T02:54:34;12.30;99.90
46416;DHT22;32620;51.704;7.822;2023-08-30T02:57:00;12.30;99.90
46416;DHT22;32620;51.704;7.822;2023-08-30T02:59:25;12.20;99.90
46416;DHT22;32620;51.704;7.822;2023-08-30T03:01:51;12.20;99.90
46416;DHT22;32620;51.704;7.822;2023-08-30T03:04:17;12.20;99.90
46416;DHT22;32620;51.704;7.822;2023-08-30T03:06:43;12.20;99.90
46416;DHT22;32620;51.704;7.822;2023-08-30T03:09:08;12.10;99.90
46416;DHT22;32620;51.704;7.822;2023-08-30T03:11:34;12.00;99.90
46416;DHT22;32620;51.704;7.822;2023-08-30T03:14:00;12.00;99.90
46416;DHT22;32620;51.704;7.822;2023-08-30T03:16:25;12.00;99.90
46416;DHT22;32620;51.704;7.822;2023-08-30T03:18:51;12.00;99.90
46416;DHT22;32620;51.704;7.822;2023-08-30T03:21:17;11.90;99.90
46416;DHT22;32620;51.704;7.822;2023-08-30T03:23:42;11.90;99.90
46416;DHT22;32620;51.704;7.822;2023-08-30T03:26:11;11.90;99.90
46416;DHT22;32620;51.704;7.822;2023-08-30T03:28:38;11.90;99.90
46416;DHT22;32620;51.704;7.822;2023-08-30T03:31:20;11.80;99.90
46416;DHT22;32620;51.704;7.822;2023-08-30T03:33:47;11.80;99.90
46416;DHT22;32620;51.704;7.822;2023-08-30T03:36:15;11.80;99.90
46416;DHT22;32620;51.704;7.822;2023-08-30T03:38:41;11.80;99.90
46416;DHT22;32620;51.704;7.822;2023-08-30T03:41:07;11.80;99.90
46416;DHT22;32620;51.704;7.822;2023-08-30T03:43:33;11.80;99.90
46416;DHT22;32620;51.704;7.822;2023-08-30T03:46:00;11.80;99.90
46416;DHT22;32620;51.704;7.822;2023-08-30T03:48:27;11.80;99.90
46416;DHT22;32620;51.704;7.822;2023-08-30T03:50:54;11.80;99.90
46416;DHT22;32620;51.704;7.822;2023-08-30T03:53:19;11.80;99.90
46416;DHT22;32620;51.704;7.822;2023-08-30T03:55:45;11.80;99.90
46416;DHT22;32620;51.704;7.822;2023-08-30T03:58:11;11.80;99.90
46416;DHT22;32620;51.704;7.822;2023-08-30T04:00:37;11.80;99.90
46416;DHT22;32620;51.704;7.822;2023-08-30T04:03:04;11.80;99.90
46416;DHT22;32620;51.704;7.822;2023-08-30T04:05:33;11.70;99.90
46416;DHT22;32620;51.704;7.822;2023-08-30T04:08:00;11.70;99.90
46416;DHT22;32620;51.704;7.822;2023-08-30T04:10:26;11.70;99.90
46416;DHT22;32620;51.704;7.822;2023-08-30T04:12:51;11.70;99.90
46416;DHT22;32620;51.704;7.822;2023-08-30T04:15:17;11.70;99.90
46416;DHT22;32620;51.704;7.822;2023-08-30T04:17:43;11.60;99.90
46416;DHT22;32620;51.704;7.822;2023-08-30T04:20:09;11.60;99.90
46416;DHT22;32620;51.704;7.822;2023-08-30T04:22:36;11.60;99.90
46416;DHT22;32620;51.704;7.822;2023-08-30T04:25:01;11.50;99.90
46416;DHT22;32620;51.704;7.822;2023-08-30T04:27:27;11.50;99.90
46416;DHT22;32620;51.704;7.822;2023-08-30T04:29:53;11.60;99.90
46416;DHT22;32620;51.704;7.822;2023-08-30T04:32:18;11.60;99.90
46416;DHT22;32620;51.704;7.822;2023-08-30T04:34:44;11.60;99.90
46416;DHT22;32620;51.704;7.822;2023-08-30T04:37:10;11.60;99.90
46416;DHT22;32620;51.704;7.822;2023-08-30T04:39:35;11.60;99.90
46416;DHT22;32620;51.704;7.822;2023-08-30T04:42:01;11.60;99.90
46416;DHT22;32620;51.704;7.822;2023-08-30T04:44:28;11.60;99.90
46416;DHT22;32620;51.704;7.822;2023-08-30T04:46:54;11.50;99.90
46416;DHT22;32620;51.704;7.822;2023-08-30T04:49:20;11.50;99.90
46416;DHT22;32620;51.704;7.822;2023-08-30T04:51:46;11.60;99.90
46416;DHT22;32620;51.704;7.822;2023-08-30T04:54:12;11.60;99.90
46416;DHT22;32620;51.704;7.822;2023-08-30T04:56:39;11.60;99.90
46416;DHT22;32620;51.704;7.822;2023-08-30T04:59:04;11.60;99.90
46416;DHT22;32620;51.704;7.822;2023-08-30T05:01:30;11.60;99.90
46416;DHT22;32620;51.704;7.822;2023-08-30T05:03:56;11.60;99.90
46416;DHT22;32620;51.704;7.822;2023-08-30T05:06:22;11.60;99.90
46416;DHT22;32620;51.704;7.822;2023-08-30T05:08:47;11.70;99.90
46416;DHT22;32620;51.704;7.822;2023-08-30T05:11:13;11.70;99.90
46416;DHT22;32620;51.704;7.822;2023-08-30T05:13:39;11.70;99.90
46416;DHT22;32620;51.704;7.822;2023-08-30T05:16:04;11.70;99.90
46416;DHT22;32620;51.704;7.822;2023-08-30T05:18:30;11.70;99.90
46416;DHT22;32620;51.704;7.822;2023-08-30T05:20:56;11.80;99.90
46416;DHT22;32620;51.704;7.822;2023-08-30T05:23:21;11.80;99.90
46416;DHT22;32620;51.704;7.822;2023-08-30T05:25:47;11.90;99.90
46416;DHT22;32620;51.704;7.822;2023-08-30T05:28:13;12.00;99.90
46416;DHT22;32620;51.704;7.822;2023-08-30T05:30:43;12.10;99.90
46416;DHT22;32620;51.704;7.822;2023-08-30T05:33:09;12.20;99.90
46416;DHT22;32620;51.704;7.822;2023-08-30T05:35:35;12.20;99.90
46416;DHT22;32620;51.704;7.822;2023-08-30T05:38:01;12.30;99.90
46416;DHT22;32620;51.704;7.822;2023-08-30T05:40:26;12.30;99.90
46416;DHT22;32620;51.704;7.822;2023-08-30T05:42:52;12.50;99.90
46416;DHT22;32620;51.704;7.822;2023-08-30T05:45:20;12.60;99.90
46416;DHT22;32620;51.704;7.822;2023-08-30T05:47:46;12.70;99.90
46416;DHT22;32620;51.704;7.822;2023-08-30T05:50:11;12.70;99.90
46416;DHT22;32620;51.704;7.822;2023-08-30T05:52:37;12.90;99.90
46416;DHT22;32620;51.704;7.822;2023-08-30T05:55:07;13.00;99.90
46416;DHT22;32620;51.704;7.822;2023-08-30T05:57:33;13.10;99.90
46416;DHT22;32620;51.704;7.822;2023-08-30T05:59:59;13.50;99.90
46416;DHT22;32620;51.704;7.822;2023-08-30T06:02:25;13.70;99.90
46416;DHT22;32620;51.704;7.822;2023-08-30T06:04:51;14.00;99.90
46416;DHT22;32620;51.704;7.822;2023-08-30T06:07:17;14.30;99.90
46416;DHT22;32620;51.704;7.822;2023-08-30T06:09:42;14.40;99.90
46416;DHT22;32620;51.704;7.822;2023-08-30T06:12:08;14.60;99.90
46416;DHT22;32620;51.704;7.822;2023-08-30T06:14:34;14.70;99.90
46416;DHT22;32620;51.704;7.822;2023-08-30T06:16:59;14.90;99.90
46416;DHT22;32620;51.704;7.822;2023-08-30T06:19:25;15.20;99.90
46416;DHT22;32620;51.704;7.822;2023-08-30T06:21:50;15.40;99.90
46416;DHT22;32620;51.704;7.822;2023-08-30T06:24:16;15.70;99.90
46416;DHT22;32620;51.704;7.822;2023-08-30T06:26:42;16.20;99.90
46416;DHT22;32620;51.704;7.822;2023-08-30T06:29:07;16.40;99.90
46416;DHT22;32620;51.704;7.822;2023-08-30T06:31:33;16.70;99.90
46416;DHT22;32620;51.704;7.822;2023-08-30T06:33:59;17.10;99.90
46416;DHT22;32620;51.704;7.822;2023-08-30T06:36:24;17.30;99.90
46416;DHT22;32620;51.704;7.822;2023-08-30T06:38:50;17.80;61.20
46416;DHT22;32620;51.704;7.822;2023-08-30T06:41:16;18.20;17.60
46416;DHT22;32620;51.704;7.822;2023-08-30T06:43:41;18.00;1.00
46416;DHT22;32620;51.704;7.822;2023-08-30T06:46:07;18.20;1.00
46416;DHT22;32620;51.704;7.822;2023-08-30T06:48:32;18.30;1.00
46416;DHT22;32620;51.704;7.822;2023-08-30T06:50:58;18.50;1.00
46416;DHT22;32620;51.704;7.822;2023-08-30T06:53:26;18.60;1.00
46416;DHT22;32620;51.704;7.822;2023-08-30T06:56:07;18.80;1.00
46416;DHT22;32620;51.704;7.822;2023-08-30T06:58:32;18.90;1.00
46416;DHT22;32620;51.704;7.822;2023-08-30T07:00:58;19.20;1.00
46416;DHT22;32620;51.704;7.822;2023-08-30T07:03:24;19.80;99.90
46416;DHT22;32620;51.704;7.822;2023-08-30T07:05:51;19.90;99.90
46416;DHT22;32620;51.704;7.822;2023-08-30T07:08:17;20.20;99.90
46416;DHT22;32620;51.704;7.822;2023-08-30T07:10:42;20.50;99.90
46416;DHT22;32620;51.704;7.822;2023-08-30T07:13:08;20.30;99.90
46416;DHT22;32620;51.704;7.822;2023-08-30T07:15:39;21.10;99.90
46416;DHT22;32620;51.704;7.822;2023-08-30T07:18:05;21.70;1.00
46416;DHT22;32620;51.704;7.822;2023-08-30T07:20:31;21.60;1.00
46416;DHT22;32620;51.704;7.822;2023-08-30T07:22:57;21.40;99.90
46416;DHT22;32620;51.704;7.822;2023-08-30T07:25:23;21.30;18.90
46416;DHT22;32620;51.704;7.822;2023-08-30T07:27:49;21.20;54.00
46416;DHT22;32620;51.704;7.822;2023-08-30T07:30:15;21.30;99.90
46416;DHT22;32620;51.704;7.822;2023-08-30T07:32:41;21.40;99.90
46416;DHT22;32620;51.704;7.822;2023-08-30T07:35:07;21.40;99.90
46416;DHT22;32620;51.704;7.822;2023-08-30T07:37:34;22.60;1.00
46416;DHT22;32620;51.704;7.822;2023-08-30T07:40:00;22.60;84.20
46416;DHT22;32620;51.704;7.822;2023-08-30T07:42:26;23.40;99.90
46416;DHT22;32620;51.704;7.822;2023-08-30T07:44:51;23.80;1.00
46416;DHT22;32620;51.704;7.822;2023-08-30T07:47:17;23.60;99.90
46416;DHT22;32620;51.704;7.822;2023-08-30T07:49:43;23.30;99.90
46416;DHT22;32620;51.704;7.822;2023-08-30T07:52:09;24.00;99.90
46416;DHT22;32620;51.704;7.822;2023-08-30T07:54:37;24.10;1.00
46416;DHT22;32620;51.704;7.822;2023-08-30T07:57:04;24.40;99.90
46416;DHT22;32620;51.704;7.822;2023-08-30T07:59:30;24.30;1.00
46416;DHT22;32620;51.704;7.822;2023-08-30T08:01:57;24.50;99.90
46416;DHT22;32620;51.704;7.822;2023-08-30T08:04:23;23.80;99.90
46416;DHT22;32620;51.704;7.822;2023-08-30T08:06:49;24.60;1.00
46416;DHT22;32620;51.704;7.822;2023-08-30T08:09:14;24.40;99.90
46416;DHT22;32620;51.704;7.822;2023-08-30T08:11:40;24.40;99.90
46416;DHT22;32620;51.704;7.822;2023-08-30T08:14:10;24.90;1.00
46416;DHT22;32620;51.704;7.822;2023-08-30T08:16:37;25.10;1.00
46416;DHT22;32620;51.704;7.822;2023-08-30T08:19:03;24.70;1.00
46416;DHT22;32620;51.704;7.822;2023-08-30T08:21:28;24.40;99.90
46416;DHT22;32620;51.704;7.822;2023-08-30T08:23:54;23.30;1.00
46416;DHT22;32620;51.704;7.822;2023-08-30T08:26:20;23.10;99.90
46416;DHT22;32620;51.704;7.822;2023-08-30T08:28:46;23.30;99.90
46416;DHT22;32620;51.704;7.822;2023-08-30T08:31:11;23.00;99.90
46416;DHT22;32620;51.704;7.822;2023-08-30T08:33:37;22.50;1.00
46416;DHT22;32620;51.704;7.822;2023-08-30T08:36:02;22.70;1.00
46416;DHT22;32620;51.704;7.822;2023-08-30T08:38:28;22.90;1.00
46416;DHT22;32620;51.704;7.822;2023-08-30T08:41:03;22.50;99.90
46416;DHT22;32620;51.704;7.822;2023-08-30T08:43:32;22.60;99.90
46416;DHT22;32620;51.704;7.822;2023-08-30T08:46:00;22.30;11.60
46416;DHT22;32620;51.704;7.822;2023-08-30T08:48:28;22.20;99.90
46416;DHT22;32620;51.704;7.822;2023-08-30T08:50:55;22.00;1.00
46416;DHT22;32620;51.704;7.822;2023-08-30T08:53:22;22.00;99.90
46416;DHT22;32620;51.704;7.822;2023-08-30T08:55:48;22.00;99.90
46416;DHT22;32620;51.704;7.822;2023-08-30T08:58:15;22.00;22.60
46416;DHT22;32620;51.704;7.822;2023-08-30T09:00:42;21.40;97.10
46416;DHT22;32620;51.704;7.822;2023-08-30T09:03:08;21.00;99.90
46416;DHT22;32620;51.704;7.822;2023-08-30T09:05:37;20.90;89.30
46416;DHT22;32620;51.704;7.822;2023-08-30T09:08:04;21.10;99.90
46416;DHT22;32620;51.704;7.822;2023-08-30T09:10:32;21.00;99.90
46416;DHT22;32620;51.704;7.822;2023-08-30T09:12:59;20.60;99.90
46416;DHT22;32620;51.704;7.822;2023-08-30T09:15:32;20.60;99.90
46416;DHT22;32620;51.704;7.822;2023-08-30T09:17:58;20.70;99.90
46416;DHT22;32620;51.704;7.822;2023-08-30T09:20:24;21.30;99.90
46416;DHT22;32620;51.704;7.822;2023-08-30T09:22:49;21.40;1.00
46416;DHT22;32620;51.704;7.822;2023-08-30T09:25:31;21.40;53.90
46416;DHT22;32620;51.704;7.822;2023-08-30T09:27:58;21.40;99.90
46416;DHT22;32620;51.704;7.822;2023-08-30T09:30:25;21.00;1.00
46416;DHT22;32620;51.704;7.822;2023-08-30T09:32:51;20.70;15.40
46416;DHT22;32620;51.704;7.822;2023-08-30T09:35:17;20.40;99.90
46416;DHT22;32620;51.704;7.822;2023-08-30T09:37:46;20.20;99.90
46416;DHT22;32620;51.704;7.822;2023-08-30T09:40:17;19.90;10.80
46416;DHT22;32620;51.704;7.822;2023-08-30T09:42:43;19.90;99.90
46416;DHT22;32620;51.704;7.822;2023-08-30T09:45:26;19.70;99.90
46416;DHT22;32620;51.704;7.822;2023-08-30T09:47:52;19.70;1.00
46416;DHT22;32620;51.704;7.822;2023-08-30T09:50:20;19.50;99.90
46416;DHT22;32620;51.704;7.822;2023-08-30T09:52:47;19.30;1.00
46416;DHT22;32620;51.704;7.822;2023-08-30T09:55:14;19.20;99.90
46416;DHT22;32620;51.704;7.822;2023-08-30T09:57:42;19.00;1.00
46416;DHT22;32620;51.704;7.822;2023-08-30T10:00:09;18.90;99.90
46416;DHT22;32620;51.704;7.822;2023-08-30T10:02:38;18.90;1.00
46416;DHT22;32620;51.704;7.822;2023-08-30T10:05:08;18.80;99.90
46416;DHT22;32620;51.704;7.822;2023-08-30T10:07:35;18.90;99.90
46416;DHT22;32620;51.704;7.822;2023-08-30T10:10:03;18.70;99.90
46416;DHT22;32620;51.704;7.822;2023-08-30T10:12:31;18.80;1.00
46416;DHT22;32620;51.704;7.822;2023-08-30T10:14:57;18.80;99.90
46416;DHT22;32620;51.704;7.822;2023-08-30T10:17:27;18.90;99.90
46416;DHT22;32620;51.704;7.822;2023-08-30T10:19:54;19.00;76.50
46416;DHT22;32620;51.704;7.822;2023-08-30T10:22:21;19.20;99.90
46416;DHT22;32620;51.704;7.822;2023-08-30T10:24:54;19.20;99.90
46416;DHT22;32620;51.704;7.822;2023-08-30T10:27:21;19.50;99.90
46416;DHT22;32620;51.704;7.822;2023-08-30T10:29:48;19.40;99.90
46416;DHT22;32620;51.704;7.822;2023-08-30T10:32:20;19.40;99.90
46416;DHT22;32620;51.704;7.822;2023-08-30T10:34:48;19.50;1.00
46416;DHT22;32620;51.704;7.822;2023-08-30T10:37:15;19.40;99.90
46416;DHT22;32620;51.704;7.822;2023-08-30T10:39:42;19.20;1.00
46416;DHT22;32620;51.704;7.822;2023-08-30T10:42:10;19.20;99.90
46416;DHT22;32620;51.704;7.822;2023-08-30T10:45:01;19.00;99.90
46416;DHT22;32620;51.704;7.822;2023-08-30T10:47:29;19.00;1.00
46416;DHT22;32620;51.704;7.822;2023-08-30T10:50:00;19.00;1.00
46416;DHT22;32620;51.704;7.822;2023-08-30T10:52:30;18.90;99.90
46416;DHT22;32620;51.704;7.822;2023-08-30T10:55:14;18.80;99.90
46416;DHT22;32620;51.704;7.822;2023-08-30T10:57:44;18.70;99.90
46416;DHT22;32620;51.704;7.822;2023-08-30T11:00:19;18.70;1.00
46416;DHT22;32620;51.704;7.822;2023-08-30T11:02:47;18.60;99.90
46416;DHT22;32620;51.704;7.822;2023-08-30T11:05:14;18.70;1.00
46416;DHT22;32620;51.704;7.822;2023-08-30T11:07:40;18.60;99.90
46416;DHT22;32620;51.704;7.822;2023-08-30T11:10:06;18.60;99.90
46416;DHT22;32620;51.704;7.822;2023-08-30T11:12:32;18.40;1.00
46416;DHT22;32620;51.704;7.822;2023-08-30T11:14:58;18.20;1.00
46416;DHT22;32620;51.704;7.822;2023-08-30T11:17:25;18.00;1.00
46416;DHT22;32620;51.704;7.822;2023-08-30T11:19:57;17.90;1.00
46416;DHT22;32620;51.704;7.822;2023-08-30T11:22:24;17.80;1.00
46416;DHT22;32620;51.704;7.822;2023-08-30T11:24:50;17.60;1.00
46416;DHT22;32620;51.704;7.822;2023-08-30T11:27:17;17.50;6.60
46416;DHT22;32620;51.704;7.822;2023-08-30T11:29:43;17.50;1.00
46416;DHT22;32620;51.704;7.822;2023-08-30T11:32:09;17.40;6.50
46416;DHT22;32620;51.704;7.822;2023-08-30T11:34:34;17.40;19.60
46416;DHT22;32620;51.704;7.822;2023-08-30T11:37:00;17.20;46.10
46416;DHT22;32620;51.704;7.822;2023-08-30T11:39:28;16.70;99.90
46416;DHT22;32620;51.704;7.822;2023-08-30T11:41:54;16.40;99.90
46416;DHT22;32620;51.704;7.822;2023-08-30T11:44:23;16.40;99.90
46416;DHT22;32620;51.704;7.822;2023-08-30T11:46:48;16.30;99.90
46416;DHT22;32620;51.704;7.822;2023-08-30T11:49:15;16.30;99.90
46416;DHT22;32620;51.704;7.822;2023-08-30T11:51:42;16.20;99.90
46416;DHT22;32620;51.704;7.822;2023-08-30T11:54:08;16.10;99.90
46416;DHT22;32620;51.704;7.822;2023-08-30T11:56:34;16.00;99.90
46416;DHT22;32620;51.704;7.822;2023-08-30T11:59:01;15.90;99.90
46416;DHT22;32620;51.704;7.822;2023-08-30T12:01:28;15.90;99.90
46416;DHT22;32620;51.704;7.822;2023-08-30T12:03:54;15.90;99.90
46416;DHT22;32620;51.704;7.822;2023-08-30T12:06:23;15.80;99.90
46416;DHT22;32620;51.704;7.822;2023-08-30T12:08:48;15.90;99.90
46416;DHT22;32620;51.704;7.822;2023-08-30T12:11:22;16.00;99.90
46416;DHT22;32620;51.704;7.822;2023-08-30T12:13:48;15.90;99.90
46416;DHT22;32620;51.704;7.822;2023-08-30T12:16:17;15.90;99.90
46416;DHT22;32620;51.704;7.822;2023-08-30T12:18:43;15.90;99.90
46416;DHT22;32620;51.704;7.822;2023-08-30T12:21:08;16.00;99.90
46416;DHT22;32620;51.704;7.822;2023-08-30T12:23:34;16.00;99.90
46416;DHT22;32620;51.704;7.822;2023-08-30T12:26:02;16.10;99.90
46416;DHT22;32620;51.704;7.822;2023-08-30T12:28:29;15.90;99.90
46416;DHT22;32620;51.704;7.822;2023-08-30T12:30:56;15.90;99.90
46416;DHT22;32620;51.704;7.822;2023-08-30T12:33:22;15.90;99.90
46416;DHT22;32620;51.704;7.822;2023-08-30T12:35:48;15.90;99.90
46416;DHT22;32620;51.704;7.822;2023-08-30T12:38:14;15.80;99.90
46416;DHT22;32620;51.704;7.822;2023-08-30T12:40:44;15.70;99.90
46416;DHT22;32620;51.704;7.822;2023-08-30T12:43:10;15.70;99.90
46416;DHT22;32620;51.704;7.822;2023-08-30T12:45:37;15.60;99.90
46416;DHT22;32620;51.704;7.822;2023-08-30T12:48:02;15.60;99.90
46416;DHT22;32620;51.704;7.822;2023-08-30T12:50:28;15.60;99.90
46416;DHT22;32620;51.704;7.822;2023-08-30T12:52:54;15.60;99.90
46416;DHT22;32620;51.704;7.822;2023-08-30T12:55:19;15.50;99.90
46416;DHT22;32620;51.704;7.822;2023-08-30T12:57:45;15.70;99.90
46416;DHT22;32620;51.704;7.822;2023-08-30T13:00:12;15.60;99.90
46416;DHT22;32620;51.704;7.822;2023-08-30T13:02:38;15.70;99.90
46416;DHT22;32620;51.704;7.822;2023-08-30T13:05:04;15.60;99.90
46416;DHT22;32620;51.704;7.822;2023-08-30T13:07:30;15.60;99.90
46416;DHT22;32620;51.704;7.822;2023-08-30T13:09:56;15.50;99.90
46416;DHT22;32620;51.704;7.822;2023-08-30T13:12:21;15.40;99.90
46416;DHT22;32620;51.704;7.822;2023-08-30T13:14:47;15.30;99.90
46416;DHT22;32620;51.704;7.822;2023-08-30T13:17:13;15.30;99.90
46416;DHT22;32620;51.704;7.822;2023-08-30T13:19:38;15.30;99.90
46416;DHT22;32620;51.704;7.822;2023-08-30T13:22:04;15.20;99.90
46416;DHT22;32620;51.704;7.822;2023-08-30T13:24:29;15.20;99.90
46416;DHT22;32620;51.704;7.822;2023-08-30T13:26:58;15.10;99.90
46416;DHT22;32620;51.704;7.822;2023-08-30T13:29:23;15.10;99.90
46416;DHT22;32620;51.704;7.822;2023-08-30T13:31:49;15.10;99.90
46416;DHT22;32620;51.704;7.822;2023-08-30T13:34:15;15.10;99.90
46416;DHT22;32620;51.704;7.822;2023-08-30T13:36:40;15.20;99.90
46416;DHT22;32620;51.704;7.822;2023-08-30T13:39:06;15.30;99.90
46416;DHT22;32620;51.704;7.822;2023-08-30T13:41:31;15.30;99.90
46416;DHT22;32620;51.704;7.822;2023-08-30T13:43:57;15.40;99.90
46416;DHT22;32620;51.704;7.822;2023-08-30T13:46:23;15.60;99.90
46416;DHT22;32620;51.704;7.822;2023-08-30T13:48:48;15.60;99.90
46416;DHT22;32620;51.704;7.822;2023-08-30T13:51:20;15.70;99.90
46416;DHT22;32620;51.704;7.822;2023-08-30T13:53:46;15.80;99.90
46416;DHT22;32620;51.704;7.822;2023-08-30T13:56:12;15.80;99.90
46416;DHT22;32620;51.704;7.822;2023-08-30T13:58:38;15.80;99.90
46416;DHT22;32620;51.704;7.822;2023-08-30T14:01:04;15.80;99.90
46416;DHT22;32620;51.704;7.822;2023-08-30T14:03:30;16.10;99.90
46416;DHT22;32620;51.704;7.822;2023-08-30T14:05:56;16.00;99.90
46416;DHT22;32620;51.704;7.822;2023-08-30T14:08:21;16.00;99.90
46416;DHT22;32620;51.704;7.822;2023-08-30T14:10:47;16.10;99.90
46416;DHT22;32620;51.704;7.822;2023-08-30T14:13:13;16.00;99.90
46416;DHT22;32620;51.704;7.822;2023-08-30T14:15:40;15.90;99.90
46416;DHT22;32620;51.704;7.822;2023-08-30T14:18:07;15.80;99.90
46416;DHT22;32620;51.704;7.822;2023-08-30T14:20:33;15.90;99.90
46416;DHT22;32620;51.704;7.822;2023-08-30T14:22:58;15.90;99.90
46416;DHT22;32620;51.704;7.822;2023-08-30T14:25:24;15.90;99.90
46416;DHT22;32620;51.704;7.822;2023-08-30T14:27:50;15.90;99.90
46416;DHT22;32620;51.704;7.822;2023-08-30T14:30:16;15.90;99.90
46416;DHT22;32620;51.704;7.822;2023-08-30T14:32:42;15.70;99.90
46416;DHT22;32620;51.704;7.822;2023-08-30T14:35:08;15.70;99.90
46416;DHT22;32620;51.704;7.822;2023-08-30T14:37:33;15.70;99.90
46416;DHT22;32620;51.704;7.822;2023-08-30T14:40:03;15.60;99.90
46416;DHT22;32620;51.704;7.822;2023-08-30T14:42:29;15.50;99.90
46416;DHT22;32620;51.704;7.822;2023-08-30T14:44:55;15.40;99.90
46416;DHT22;32620;51.704;7.822;2023-08-30T14:47:21;15.40;99.90
46416;DHT22;32620;51.704;7.822;2023-08-30T14:49:47;15.40;99.90
46416;DHT22;32620;51.704;7.822;2023-08-30T14:52:14;15.40;99.90
46416;DHT22;32620;51.704;7.822;2023-08-30T14:54:39;15.50;99.90
46416;DHT22;32620;51.704;7.822;2023-08-30T14:57:06;15.40;99.90
46416;DHT22;32620;51.704;7.822;2023-08-30T14:59:32;15.50;99.90
46416;DHT22;32620;51.704;7.822;2023-08-30T15:01:58;15.40;99.90
46416;DHT22;32620;51.704;7.822;2023-08-30T15:04:24;15.50;99.90
46416;DHT22;32620;51.704;7.822;2023-08-30T15:06:50;15.30;99.90
46416;DHT22;32620;51.704;7.822;2023-08-30T15:09:17;15.30;99.90
46416;DHT22;32620;51.704;7.822;2023-08-30T15:11:43;15.30;99.90
46416;DHT22;32620;51.704;7.822;2023-08-30T15:14:09;15.30;99.90
46416;DHT22;32620;51.704;7.822;2023-08-30T15:16:35;15.20;99.90
46416;DHT22;32620;51.704;7.822;2023-08-30T15:19:01;15.10;99.90
46416;DHT22;32620;51.704;7.822;2023-08-30T15:21:27;15.20;99.90
46416;DHT22;32620;51.704;7.822;2023-08-30T15:23:52;15.20;99.90
46416;DHT22;32620;51.704;7.822;2023-08-30T15:26:18;15.20;99.90
46416;DHT22;32620;51.704;7.822;2023-08-30T15:28:46;15.10;99.90
46416;DHT22;32620;51.704;7.822;2023-08-30T15:31:12;15.10;99.90
46416;DHT22;32620;51.704;7.822;2023-08-30T15:33:38;15.10;99.90